Time;durP1;ratioP1;P1;durP2;ratioP2;P2;SDS_P1;SDS_P2;PMS_P1;PMS_P2;Temp;Humidity;BMP_temperature;BMP_pressure;BME280_temperature;BME280_humidity;BME280_pressure;Samples;Min_cycle;Max_cycle;Signal;HPM_P1;HPM_P2
2023/04/10 00:01:37;;;;;;;6.40;4.33;;;4.80;99.90;;;;;;5020199;28;20210;-80
2023/04/10 00:04:03;;;;;;;5.40;4.37;;;4.80;99.90;;;;;;5023560;28;20172;-81
2023/04/10 00:06:30;;;;;;;8.63;4.60;;;4.80;99.90;;;;;;5039182;28;20209;-80
2023/04/10 00:08:56;;;;;;;5.23;4.20;;;4.70;99.90;;;;;;5042340;28;20176;-80
2023/04/10 00:11:22;;;;;;;5.77;4.47;;;4.60;99.90;;;;;;5024096;28;20228;-80
2023/04/10 00:13:47;;;;;;;5.83;4.43;;;4.50;99.90;;;;;;5042761;28;20184;-80
2023/04/10 00:16:13;;;;;;;6.63;4.50;;;4.60;99.90;;;;;;5034152;28;20199;-80
2023/04/10 00:18:38;;;;;;;5.47;4.13;;;4.70;99.90;;;;;;5021697;28;20186;-80
2023/04/10 00:21:05;;;;;;;5.47;4.30;;;4.90;99.90;;;;;;5021615;28;20647;-80
2023/04/10 00:23:33;;;;;;;5.87;4.70;;;5.00;99.90;;;;;;5020289;28;20346;-79
2023/04/10 00:26:00;;;;;;;5.23;4.40;;;4.90;99.90;;;;;;5016851;28;20176;-80
2023/04/10 00:28:26;;;;;;;5.67;4.43;;;4.90;99.90;;;;;;4999045;28;20176;-80
2023/04/10 00:30:51;;;;;;;5.03;4.17;;;4.80;99.90;;;;;;4998654;28;20204;-79
2023/04/10 00:33:17;;;;;;;5.50;4.30;;;4.70;99.90;;;;;;4999198;28;20696;-80
2023/04/10 00:35:42;;;;;;;6.13;4.77;;;4.60;99.90;;;;;;5016761;28;20193;-80
2023/04/10 00:38:08;;;;;;;5.23;4.67;;;4.50;99.90;;;;;;5015318;28;20647;-80
2023/04/10 00:40:34;;;;;;;6.13;4.67;;;4.50;99.90;;;;;;5016255;28;20204;-80
2023/04/10 00:43:00;;;;;;;7.00;4.77;;;4.60;99.90;;;;;;5015015;28;20202;-80
2023/04/10 00:45:26;;;;;;;7.27;4.80;;;4.60;99.90;;;;;;5016557;28;20170;-80
2023/04/10 00:47:51;;;;;;;6.67;5.13;;;4.60;99.90;;;;;;5016194;28;20177;-80
2023/04/10 00:50:19;;;;;;;7.40;5.30;;;4.70;99.90;;;;;;5015897;28;20184;-79
2023/04/10 00:52:45;;;;;;;6.87;5.37;;;4.60;99.90;;;;;;5016279;28;20197;-81
2023/04/10 00:55:11;;;;;;;6.90;4.63;;;4.60;99.90;;;;;;5015263;28;20179;-79
2023/04/10 00:57:37;;;;;;;5.97;4.83;;;4.40;99.90;;;;;;5018500;28;20190;-80
2023/04/10 01:00:03;;;;;;;7.23;5.50;;;4.30;99.90;;;;;;5017363;28;20177;-80
2023/04/10 01:02:29;;;;;;;6.47;5.23;;;4.20;99.90;;;;;;5018111;28;20245;-79
2023/04/10 01:04:55;;;;;;;7.80;5.40;;;4.20;99.90;;;;;;5036648;28;20168;-80
2023/04/10 01:07:42;;;;;;;6.13;5.10;;;4.30;99.90;;;;;;5018100;28;20645;-79
2023/04/10 01:10:26;;;;;;;6.03;4.97;;;4.40;99.90;;;;;;5035249;28;20175;-79
2023/04/10 01:13:15;;;;;;;5.83;4.73;;;4.30;99.90;;;;;;5035846;28;20182;-80
2023/04/10 01:15:53;;;;;;;6.27;4.43;;;4.20;99.90;;;;;;5034317;28;20175;-79
2023/04/10 01:18:30;;;;;;;7.90;5.63;;;4.10;99.90;;;;;;5017706;28;20175;-80
2023/04/10 01:20:56;;;;;;;6.57;5.30;;;3.90;99.90;;;;;;5034925;28;20210;-80
2023/04/10 01:23:28;;;;;;;6.53;4.70;;;4.00;99.90;;;;;;5017425;28;20236;-79
2023/04/10 01:26:02;;;;;;;5.80;4.40;;;4.00;99.90;;;;;;5035430;28;20198;-79
2023/04/10 01:29:02;;;;;;;5.77;4.50;;;3.90;99.90;;;;;;5035595;28;20245;-79
2023/04/10 01:31:40;;;;;;;5.67;4.67;;;3.60;99.90;;;;;;5034277;28;20191;-80
2023/04/10 01:34:09;;;;;;;6.33;5.20;;;3.60;99.90;;;;;;5034161;28;20221;-79
2023/04/10 01:36:57;;;;;;;6.23;4.87;;;3.60;99.90;;;;;;5017574;28;20178;-80
2023/04/10 01:39:25;;;;;;;7.97;5.53;;;3.60;99.90;;;;;;5035572;28;20182;-80
2023/04/10 01:41:52;;;;;;;7.43;5.00;;;3.70;99.90;;;;;;5017119;28;20214;-80
2023/04/10 01:44:24;;;;;;;7.20;5.43;;;3.80;99.90;;;;;;5035978;28;20225;-80
2023/04/10 01:46:51;;;;;;;6.80;5.33;;;3.80;99.90;;;;;;5035614;28;20170;-80
2023/04/10 01:49:18;;;;;;;6.40;4.90;;;3.70;99.90;;;;;;5035655;28;20234;-81
2023/04/10 01:51:45;;;;;;;7.67;5.43;;;3.70;99.90;;;;;;5016582;28;20198;-80
2023/04/10 01:54:11;;;;;;;6.53;4.70;;;3.80;99.90;;;;;;5017401;28;20178;-80
2023/04/10 01:56:37;;;;;;;5.73;4.90;;;3.70;99.90;;;;;;5035367;28;20292;-80
2023/04/10 01:59:04;;;;;;;6.00;4.80;;;3.70;99.90;;;;;;5016984;28;20205;-80
2023/04/10 02:01:30;;;;;;;5.97;4.70;;;3.70;99.90;;;;;;5034082;28;20206;-80
2023/04/10 02:03:56;;;;;;;7.30;5.30;;;3.80;99.90;;;;;;5035182;28;20178;-81
2023/04/10 02:06:27;;;;;;;7.10;5.20;;;3.90;99.90;;;;;;5017455;28;20167;-81
2023/04/10 02:09:17;;;;;;;7.90;5.50;;;3.90;99.90;;;;;;5034036;28;20199;-80
2023/04/10 02:11:52;;;;;;;7.00;5.23;;;4.00;99.90;;;;;;5016882;28;20327;-80
2023/04/10 02:14:20;;;;;;;6.13;5.10;;;4.00;99.90;;;;;;5033869;28;20185;-80
2023/04/10 02:16:48;;;;;;;7.00;5.20;;;4.00;99.90;;;;;;5017401;28;20174;-80
2023/04/10 02:19:15;;;;;;;7.20;5.30;;;4.00;99.90;;;;;;5035077;28;20257;-80
2023/04/10 02:21:41;;;;;;;6.30;4.80;;;4.00;99.90;;;;;;5017068;28;20708;-80
2023/04/10 02:24:06;;;;;;;8.17;5.43;;;4.00;99.90;;;;;;5004468;28;20233;-81
2023/04/10 02:26:45;;;;;;;6.83;5.20;;;3.70;99.90;;;;;;5015555;28;20274;-80
2023/04/10 02:29:11;;;;;;;6.43;5.30;;;3.50;99.90;;;;;;5015514;28;20193;-81
2023/04/10 02:31:37;;;;;;;6.00;4.73;;;3.40;99.90;;;;;;5029751;28;20207;-80
2023/04/10 02:34:02;;;;;;;6.57;5.20;;;3.50;99.90;;;;;;4998269;28;20175;-80
2023/04/10 02:36:28;;;;;;;7.07;4.83;;;3.50;99.90;;;;;;5031350;28;20219;-80
2023/04/10 02:38:54;;;;;;;6.87;5.10;;;3.50;99.90;;;;;;5031546;28;20185;-80
2023/04/10 02:41:19;;;;;;;7.83;5.60;;;3.40;99.90;;;;;;4998312;28;20234;-80
2023/04/10 02:43:45;;;;;;;6.00;4.90;;;3.40;99.90;;;;;;5016791;28;20180;-80
2023/04/10 02:46:10;;;;;;;6.47;5.30;;;3.50;99.90;;;;;;5032080;28;20179;-80
2023/04/10 02:48:36;;;;;;;6.50;4.70;;;3.60;99.90;;;;;;5032858;28;20202;-81
2023/04/10 02:51:02;;;;;;;6.87;5.20;;;3.60;99.90;;;;;;4999173;28;20174;-80
2023/04/10 02:53:28;;;;;;;7.73;5.40;;;3.70;99.90;;;;;;5033048;28;20256;-80
2023/04/10 02:55:54;;;;;;;8.47;5.70;;;3.70;99.90;;;;;;5018592;28;20183;-81
2023/04/10 02:58:20;;;;;;;7.27;4.60;;;3.70;99.90;;;;;;5033694;28;20178;-80
2023/04/10 03:00:50;;;;;;;6.10;5.00;;;3.70;99.90;;;;;;5000043;28;20745;-80
2023/04/10 03:03:19;;;;;;;8.17;5.67;;;3.70;99.90;;;;;;5001340;28;20229;-81
2023/04/10 03:05:47;;;;;;;7.23;5.47;;;3.70;99.90;;;;;;5019365;28;20260;-81
2023/04/10 03:08:13;;;;;;;6.70;5.40;;;3.70;99.90;;;;;;5002229;28;20242;-80
2023/04/10 03:10:39;;;;;;;5.87;4.77;;;3.60;99.90;;;;;;5034407;28;20197;-80
2023/04/10 03:13:04;;;;;;;7.07;5.10;;;3.60;99.90;;;;;;5006919;28;20277;-81
2023/04/10 03:15:31;;;;;;;6.27;5.13;;;3.50;99.90;;;;;;5024291;28;20188;-80
2023/04/10 03:17:56;;;;;;;6.93;5.30;;;3.40;99.90;;;;;;5007960;28;20182;-81
2023/04/10 03:20:22;;;;;;;6.27;5.20;;;3.50;99.90;;;;;;5009007;28;20194;-80
2023/04/10 03:22:47;;;;;;;7.07;5.17;;;3.50;99.90;;;;;;5018891;28;20544;-80
2023/04/10 03:25:13;;;;;;;7.67;5.27;;;3.40;99.90;;;;;;5017622;28;20164;-80
2023/04/10 03:27:38;;;;;;;7.53;4.97;;;3.50;99.90;;;;;;5032820;28;20207;-80
2023/04/10 03:30:05;;;;;;;7.07;5.20;;;3.50;99.90;;;;;;4999016;28;20182;-79
2023/04/10 03:32:30;;;;;;;7.67;5.30;;;3.40;99.90;;;;;;5000043;28;20582;-80
2023/04/10 03:34:57;;;;;;;7.80;5.13;;;3.40;99.90;;;;;;5033189;28;20178;-80
2023/04/10 03:37:23;;;;;;;6.87;4.90;;;3.40;99.90;;;;;;5032921;28;20175;-80
2023/04/10 03:39:49;;;;;;;6.97;5.13;;;3.50;99.90;;;;;;5017519;28;20687;-80
2023/04/10 03:42:14;;;;;;;7.10;5.27;;;3.50;99.90;;;;;;5032610;28;20206;-80
2023/04/10 03:44:40;;;;;;;6.90;4.90;;;3.50;99.90;;;;;;5032601;28;20175;-81
2023/04/10 03:47:05;;;;;;;7.17;5.20;;;3.50;99.90;;;;;;4999451;28;20184;-81
2023/04/10 03:49:31;;;;;;;7.33;5.00;;;3.60;99.90;;;;;;5000105;28;20171;-80
2023/04/10 03:51:57;;;;;;;8.10;5.27;;;3.60;99.90;;;;;;5032401;28;20197;-80
2023/04/10 03:54:22;;;;;;;9.03;5.27;;;3.60;99.90;;;;;;5017028;28;20229;-80
2023/04/10 03:56:48;;;;;;;6.57;5.00;;;3.60;99.90;;;;;;5032677;28;20171;-80
2023/04/10 03:59:13;;;;;;;6.50;5.03;;;3.60;99.90;;;;;;5017309;28;20172;-80
2023/04/10 04:01:39;;;;;;;7.20;5.30;;;3.50;99.90;;;;;;5031525;28;20217;-80
2023/04/10 04:04:05;;;;;;;6.90;5.00;;;3.50;99.90;;;;;;5000161;28;20270;-80
2023/04/10 04:06:30;;;;;;;8.93;5.87;;;3.40;99.90;;;;;;4999792;28;20273;-80
2023/04/10 04:08:56;;;;;;;6.70;4.93;;;3.40;99.90;;;;;;5032644;28;20725;-79
2023/04/10 04:11:22;;;;;;;7.10;5.33;;;3.40;99.90;;;;;;5016755;28;20198;-80
2023/04/10 04:13:47;;;;;;;5.60;5.00;;;3.40;99.90;;;;;;5017067;28;20189;-80
2023/04/10 04:16:13;;;;;;;6.80;5.10;;;3.40;99.90;;;;;;5017292;28;20182;-81
2023/04/10 04:18:38;;;;;;;7.27;5.40;;;3.50;99.90;;;;;;5032336;28;20288;-80
2023/04/10 04:21:04;;;;;;;6.30;5.10;;;3.40;99.90;;;;;;4998789;28;20568;-80
2023/04/10 04:23:30;;;;;;;6.40;5.27;;;3.40;99.90;;;;;;5016367;28;20179;-80
2023/04/10 04:25:56;;;;;;;7.33;5.50;;;3.30;99.90;;;;;;5017353;28;20178;-80
2023/04/10 04:28:22;;;;;;;7.80;5.47;;;3.40;99.90;;;;;;4999098;28;20171;-80
2023/04/10 04:30:49;;;;;;;6.93;5.30;;;3.40;99.90;;;;;;5017076;28;20206;-79
2023/04/10 04:33:14;;;;;;;7.03;5.33;;;3.50;99.90;;;;;;5001055;28;20298;-80
2023/04/10 04:35:40;;;;;;;6.83;5.23;;;3.50;99.90;;;;;;5016282;28;20627;-82
2023/04/10 04:38:05;;;;;;;7.30;5.80;;;3.40;99.90;;;;;;5000154;28;20186;-79
2023/04/10 04:40:31;;;;;;;7.27;5.27;;;3.40;99.90;;;;;;5032198;28;20194;-80
2023/04/10 04:42:56;;;;;;;7.47;5.27;;;3.20;99.90;;;;;;4999811;28;20199;-81
2023/04/10 04:45:23;;;;;;;7.63;5.67;;;3.20;99.90;;;;;;5016951;28;20175;-79
2023/04/10 04:47:49;;;;;;;7.50;5.47;;;3.20;99.90;;;;;;5032865;28;20181;-80
2023/04/10 04:50:14;;;;;;;7.93;6.07;;;3.30;99.90;;;;;;5017061;28;20178;-82
2023/04/10 04:52:40;;;;;;;6.83;5.13;;;3.40;99.90;;;;;;5018231;28;20278;-80
2023/04/10 04:55:06;;;;;;;7.07;5.00;;;3.50;99.90;;;;;;5017819;28;20178;-80
2023/04/10 04:57:32;;;;;;;7.53;5.73;;;3.50;99.90;;;;;;5017720;28;20174;-80
2023/04/10 04:59:57;;;;;;;7.93;5.73;;;3.50;99.90;;;;;;4999584;28;20182;-80
2023/04/10 05:02:23;;;;;;;8.13;5.63;;;3.40;99.90;;;;;;5017915;28;20215;-83
2023/04/10 05:04:48;;;;;;;7.77;5.23;;;3.50;99.90;;;;;;5018247;28;20163;-79
2023/04/10 05:07:14;;;;;;;6.10;4.57;;;3.50;99.90;;;;;;5018050;28;20174;-80
2023/04/10 05:09:40;;;;;;;7.23;5.23;;;3.40;99.90;;;;;;5017758;28;20182;-80
2023/04/10 05:12:05;;;;;;;6.73;5.40;;;3.40;99.90;;;;;;5000165;28;20280;-80
2023/04/10 05:14:31;;;;;;;8.07;5.73;;;3.40;99.90;;;;;;5000424;28;20174;-83
2023/04/10 05:16:57;;;;;;;7.20;5.07;;;3.40;99.90;;;;;;5000621;28;20190;-80
2023/04/10 05:19:22;;;;;;;8.27;5.87;;;3.40;99.90;;;;;;5018917;28;20183;-80
2023/04/10 05:21:48;;;;;;;7.53;5.70;;;3.50;99.90;;;;;;5017564;28;20213;-81
2023/04/10 05:24:13;;;;;;;8.03;5.80;;;3.40;99.90;;;;;;5033451;28;20175;-82
2023/04/10 05:26:40;;;;;;;7.53;5.90;;;3.40;99.90;;;;;;5016784;28;20178;-82
2023/04/10 05:29:06;;;;;;;7.97;5.67;;;3.40;99.90;;;;;;5031525;28;20634;-82
2023/04/10 05:31:31;;;;;;;8.60;5.83;;;3.30;99.90;;;;;;5017127;28;20202;-83
2023/04/10 05:33:57;;;;;;;6.40;4.97;;;3.40;99.90;;;;;;5019581;28;20538;-83
2023/04/10 05:36:22;;;;;;;6.60;5.43;;;3.30;99.90;;;;;;5019832;28;20198;-82
2023/04/10 05:38:48;;;;;;;8.23;5.33;;;3.20;99.90;;;;;;5016867;28;20229;-82
2023/04/10 05:41:13;;;;;;;8.43;6.00;;;3.30;99.90;;;;;;5015136;28;20210;-82
2023/04/10 05:43:39;;;;;;;8.10;5.63;;;3.30;99.90;;;;;;5015988;28;20175;-82
2023/04/10 05:46:05;;;;;;;9.33;5.90;;;3.30;99.90;;;;;;5015915;28;20249;-85
2023/04/10 05:48:30;;;;;;;8.47;5.77;;;3.20;99.90;;;;;;5030639;28;20178;-85
2023/04/10 05:50:56;;;;;;;7.30;5.53;;;3.10;99.90;;;;;;5030712;28;20190;-82
2023/04/10 05:53:31;;;;;;;7.00;5.60;;;3.10;99.90;;;;;;5008688;28;20741;-78
2023/04/10 05:55:58;;;;;;;8.43;5.93;;;3.30;99.90;;;;;;5032370;28;20180;-81
2023/04/10 05:58:27;;;;;;;8.60;5.90;;;3.30;99.90;;;;;;5037357;28;20553;-80
2023/04/10 06:00:53;;;;;;;8.03;5.70;;;3.30;99.90;;;;;;5036480;28;20240;-79
2023/04/10 06:03:19;;;;;;;10.10;5.87;;;3.40;99.90;;;;;;5037007;28;20583;-80
2023/04/10 06:05:45;;;;;;;8.10;5.37;;;3.40;99.90;;;;;;5014253;28;20177;-80
2023/04/10 06:08:11;;;;;;;9.47;5.93;;;3.40;99.90;;;;;;5020650;28;20190;-80
2023/04/10 06:10:37;;;;;;;9.17;6.30;;;3.40;99.90;;;;;;5034067;28;20186;-80
2023/04/10 06:13:02;;;;;;;6.83;5.40;;;3.40;99.90;;;;;;5015085;28;20285;-80
2023/04/10 06:15:28;;;;;;;8.53;6.47;;;3.40;99.90;;;;;;5016725;28;20175;-79
2023/04/10 06:17:54;;;;;;;8.83;5.80;;;3.40;99.90;;;;;;5019831;28;20191;-82
2023/04/10 06:20:20;;;;;;;9.47;6.73;;;3.40;99.90;;;;;;5015808;28;20201;-81
2023/04/10 06:22:46;;;;;;;8.97;5.97;;;3.40;99.90;;;;;;5014293;28;20255;-81
2023/04/10 06:25:11;;;;;;;8.87;6.50;;;3.50;99.90;;;;;;5013371;28;20163;-79
2023/04/10 06:27:37;;;;;;;9.57;6.77;;;3.60;99.90;;;;;;5014132;28;20178;-78
2023/04/10 06:30:03;;;;;;;8.37;6.80;;;3.80;99.90;;;;;;5011882;28;20170;-77
2023/04/10 06:32:29;;;;;;;8.77;6.23;;;4.00;99.90;;;;;;5016607;28;20213;-77
2023/04/10 06:34:55;;;;;;;7.87;6.40;;;4.00;99.90;;;;;;5016368;28;20232;-80
2023/04/10 06:37:32;;;;;;;9.60;6.70;;;4.00;99.90;;;;;;5034357;28;20238;-78
2023/04/10 06:40:11;;;;;;;10.23;6.47;;;4.10;99.90;;;;;;5033579;28;20235;-78
2023/04/10 06:42:37;;;;;;;9.87;6.70;;;4.30;99.90;;;;;;5034214;28;20571;-79
2023/04/10 06:45:03;;;;;;;9.77;7.00;;;4.40;99.90;;;;;;5034790;28;20188;-80
2023/04/10 06:47:30;;;;;;;9.30;6.93;;;4.50;99.90;;;;;;5033813;28;20185;-79
2023/04/10 06:49:56;;;;;;;10.93;7.17;;;4.50;99.90;;;;;;5034068;28;20176;-79
2023/04/10 06:52:22;;;;;;;10.97;7.40;;;4.60;99.90;;;;;;5014137;28;20202;-79
2023/04/10 06:54:47;;;;;;;9.10;6.70;;;4.70;99.90;;;;;;5014339;28;20175;-80
2023/04/10 06:57:13;;;;;;;8.43;6.00;;;4.80;99.90;;;;;;5013135;28;20202;-78
2023/04/10 06:59:39;;;;;;;9.17;6.77;;;5.00;99.90;;;;;;4995719;28;20183;-81
2023/04/10 07:02:04;;;;;;;9.60;7.00;;;5.00;99.90;;;;;;4996470;28;20210;-77
2023/04/10 07:04:30;;;;;;;9.67;6.50;;;5.40;99.90;;;;;;4996374;28;20185;-77
2023/04/10 07:06:56;;;;;;;11.80;7.33;;;5.80;99.90;;;;;;5013697;28;20175;-77
2023/04/10 07:09:25;;;;;;;9.00;7.00;;;6.20;99.90;;;;;;4996529;28;20534;-77
2023/04/10 07:11:51;;;;;;;9.93;7.13;;;6.50;99.90;;;;;;5014873;28;20283;-77
2023/04/10 07:14:16;;;;;;;10.57;8.27;;;6.90;99.90;;;;;;4996434;28;20205;-79
2023/04/10 07:16:42;;;;;;;10.57;8.07;;;7.20;99.90;;;;;;4996483;28;20181;-78
2023/04/10 07:19:08;;;;;;;11.63;8.63;;;7.50;99.90;;;;;;5013942;28;20177;-77
2023/04/10 07:21:33;;;;;;;10.73;7.83;;;7.80;99.90;;;;;;4996366;28;20218;-79
2023/04/10 07:23:59;;;;;;;12.80;8.43;;;7.90;99.90;;;;;;5013785;28;20181;-80
2023/04/10 07:26:24;;;;;;;14.13;9.50;;;8.10;99.90;;;;;;5014590;28;20273;-85
2023/04/10 07:28:50;;;;;;;12.73;9.00;;;8.30;99.90;;;;;;4995983;28;20182;-82
2023/04/10 07:31:17;;;;;;;13.17;9.80;;;8.60;99.90;;;;;;5002004;28;20236;-82
2023/04/10 07:33:44;;;;;;;13.27;9.67;;;9.00;99.90;;;;;;5008247;28;20194;-82
2023/04/10 07:36:10;;;;;;;13.67;9.63;;;9.20;99.90;;;;;;5034548;28;20188;-83
2023/04/10 07:38:36;;;;;;;12.60;8.90;;;9.50;99.90;;;;;;5029963;28;20179;-82
2023/04/10 07:41:02;;;;;;;11.80;8.73;;;9.60;99.90;;;;;;5010947;28;20682;-82
2023/04/10 07:43:28;;;;;;;12.70;9.20;;;9.70;99.90;;;;;;5034256;28;20174;-84
2023/04/10 07:45:54;;;;;;;11.60;9.23;;;9.80;99.90;;;;;;5034651;28;20173;-83
2023/04/10 07:48:20;;;;;;;12.90;9.10;;;9.90;99.90;;;;;;5015581;28;20527;-84
2023/04/10 07:50:45;;;;;;;12.73;8.97;;;10.00;99.90;;;;;;5014090;28;20264;-83
2023/04/10 07:53:11;;;;;;;11.83;9.27;;;10.10;99.90;;;;;;5015055;28;20205;-83
2023/04/10 07:55:42;;;;;;;11.90;9.10;;;10.20;99.90;;;;;;5014328;28;20204;-84
2023/04/10 07:58:07;;;;;;;12.70;9.27;;;10.30;99.90;;;;;;4999253;28;20178;-83
2023/04/10 08:00:33;;;;;;;10.93;8.70;;;10.40;99.70;;;;;;5018080;28;20201;-82
2023/04/10 08:02:59;;;;;;;10.90;8.17;;;10.40;99.90;;;;;;5000928;28;20199;-83
2023/04/10 08:05:25;;;;;;;10.33;7.97;;;10.50;99.90;;;;;;5000788;28;20205;-82
2023/04/10 08:07:51;;;;;;;10.97;8.37;;;10.70;99.90;;;;;;4998810;28;20650;-83
2023/04/10 08:10:16;;;;;;;12.93;8.40;;;10.80;99.90;;;;;;4991688;28;20183;-82
2023/04/10 08:12:42;;;;;;;10.90;8.23;;;10.90;99.90;;;;;;5019352;28;20260;-83
2023/04/10 08:15:08;;;;;;;15.17;10.37;;;10.90;95.90;;;;;;5001527;28;20544;-82
2023/04/10 08:17:33;;;;;;;14.10;8.90;;;10.90;99.90;;;;;;4997002;28;20238;-82
2023/04/10 08:19:59;;;;;;;11.73;8.03;;;11.10;99.90;;;;;;4999851;28;20180;-84
2023/04/10 08:22:24;;;;;;;11.27;8.00;;;11.10;98.70;;;;;;5000126;28;20354;-83
2023/04/10 08:24:50;;;;;;;10.93;7.93;;;11.20;99.00;;;;;;5002243;28;20191;-83
2023/04/10 08:27:16;;;;;;;9.60;7.60;;;11.40;98.10;;;;;;5002036;28;20178;-84
2023/04/10 08:29:42;;;;;;;9.47;7.50;;;11.40;98.20;;;;;;5020064;28;20602;-83
2023/04/10 08:32:07;;;;;;;9.77;7.47;;;11.30;94.50;;;;;;5002056;28;20218;-82
2023/04/10 08:34:33;;;;;;;10.30;8.23;;;11.30;94.30;;;;;;5020708;28;20269;-82
2023/04/10 08:36:59;;;;;;;9.13;7.23;;;11.30;94.70;;;;;;5002623;28;20182;-82
2023/04/10 08:39:24;;;;;;;10.50;7.80;;;11.30;95.80;;;;;;5020901;28;20215;-82
2023/04/10 08:41:50;;;;;;;10.33;7.73;;;11.40;91.30;;;;;;5019968;28;20236;-83
2023/04/10 08:44:16;;;;;;;9.23;7.27;;;11.40;95.70;;;;;;5021251;28;20178;-84
2023/04/10 08:46:44;;;;;;;8.87;7.20;;;11.60;91.90;;;;;;5003428;28;20179;-83
2023/04/10 08:49:46;;;;;;;9.37;7.50;;;11.90;93.20;;;;;;5021463;28;20178;-84
2023/04/10 08:52:21;;;;;;;9.03;7.10;;;12.10;91.10;;;;;;4974099;28;20293;-83
2023/04/10 08:54:52;;;;;;;8.03;6.23;;;12.10;85.10;;;;;;5004899;28;20251;-83
2023/04/10 08:57:19;;;;;;;7.37;6.07;;;12.10;81.30;;;;;;5002553;28;20220;-83
2023/04/10 08:59:46;;;;;;;7.77;6.70;;;12.10;79.60;;;;;;4984123;28;20210;-83
2023/04/10 09:02:11;;;;;;;7.50;6.30;;;12.10;77.60;;;;;;5002767;28;20299;-84
2023/04/10 09:04:37;;;;;;;8.63;6.67;;;12.30;76.10;;;;;;5003340;28;20211;-82
2023/04/10 09:07:03;;;;;;;8.33;6.20;;;12.30;79.50;;;;;;4985558;28;20206;-83
2023/04/10 09:09:31;;;;;;;7.10;6.13;;;12.50;74.20;;;;;;4985720;28;20213;-83
2023/04/10 09:11:59;;;;;;;6.87;5.83;;;12.60;77.60;;;;;;5023847;28;20198;-83
2023/04/10 09:14:33;;;;;;;6.57;5.60;;;12.90;71.10;;;;;;5018452;28;20209;-83
2023/04/10 09:17:18;;;;;;;6.90;5.67;;;13.00;66.50;;;;;;5016571;28;20517;-82
2023/04/10 09:19:46;;;;;;;7.40;5.37;;;13.00;61.30;;;;;;4998699;28;20184;-84
2023/04/10 09:22:12;;;;;;;5.60;5.00;;;13.10;60.60;;;;;;4998485;28;20263;-83
2023/04/10 09:24:39;;;;;;;5.73;4.90;;;13.30;58.70;;;;;;4998710;28;20189;-83
2023/04/10 09:27:07;;;;;;;5.17;4.60;;;13.30;57.10;;;;;;5015461;28;20545;-83
2023/04/10 09:29:44;;;;;;;5.37;4.77;;;13.20;56.00;;;;;;5009746;28;20258;-83
2023/04/10 09:32:11;;;;;;;6.37;5.30;;;13.30;64.40;;;;;;5035066;28;20216;-83
2023/04/10 09:34:55;;;;;;;7.43;5.43;;;13.40;55.30;;;;;;5018417;28;20178;-83
2023/04/10 09:37:21;;;;;;;11.73;7.07;;;13.70;57.10;;;;;;5036432;28;20174;-83
2023/04/10 09:39:47;;;;;;;11.30;6.40;;;14.00;56.90;;;;;;5017557;28;20257;-83
2023/04/10 09:42:14;;;;;;;9.90;6.67;;;14.00;50.70;;;;;;5016796;28;20680;-83
2023/04/10 09:44:41;;;;;;;6.47;4.90;;;13.80;51.60;;;;;;5004246;28;20202;-82
2023/04/10 09:47:27;;;;;;;5.93;4.50;;;13.90;55.60;;;;;;4979707;28;20175;-83
2023/04/10 09:49:54;;;;;;;5.27;4.50;;;14.30;50.10;;;;;;4978998;28;20190;-83
2023/04/10 09:52:23;;;;;;;5.03;4.43;;;14.60;49.20;;;;;;4997488;28;20226;-83
2023/04/10 09:54:50;;;;;;;4.80;4.30;;;15.00;51.10;;;;;;4980018;28;20175;-84
2023/04/10 09:57:18;;;;;;;4.67;4.10;;;14.90;45.00;;;;;;4979328;28;20263;-83
2023/04/10 09:59:50;;;;;;;4.93;4.43;;;14.90;40.40;;;;;;5001342;28;20229;-83
2023/04/10 10:02:18;;;;;;;5.47;4.73;;;14.90;41.10;;;;;;5016643;28;20306;-82
2023/04/10 10:04:48;;;;;;;5.03;4.30;;;14.90;40.60;;;;;;4998787;28;20182;-84
2023/04/10 10:07:19;;;;;;;7.00;5.37;;;15.20;40.30;;;;;;4998485;28;20166;-84
2023/04/10 10:09:46;;;;;;;5.40;4.30;;;15.10;33.90;;;;;;5016655;28;20701;-84
2023/04/10 10:12:15;;;;;;;5.17;4.50;;;15.10;35.30;;;;;;5018542;28;20202;-86
2023/04/10 10:14:56;;;;;;;4.67;4.10;;;15.20;37.70;;;;;;5017897;28;20230;-84
2023/04/10 10:17:26;;;;;;;5.20;4.23;;;15.50;42.40;;;;;;4998991;28;20177;-83
2023/04/10 10:20:06;;;;;;;4.73;4.23;;;15.70;32.40;;;;;;5023280;28;20193;-86
2023/04/10 10:22:32;;;;;;;5.40;4.57;;;15.60;39.80;;;;;;5031732;28;20584;-81
2023/04/10 10:24:59;;;;;;;8.13;6.70;;;15.70;35.90;;;;;;5017651;28;20167;-80
2023/04/10 10:27:26;;;;;;;20.20;9.23;;;15.80;36.50;;;;;;5018051;28;20201;-80
2023/04/10 10:29:53;;;;;;;6.20;4.80;;;15.60;32.80;;;;;;5035017;28;20170;-80
2023/04/10 10:32:20;;;;;;;7.20;5.43;;;15.20;31.40;;;;;;5015366;28;20218;-80
2023/04/10 10:34:47;;;;;;;32.03;14.57;;;15.00;32.50;;;;;;4977490;28;20188;-83
2023/04/10 10:37:13;;;;;;;23.13;11.20;;;15.20;45.70;;;;;;4977763;28;20238;-84
2023/04/10 10:40:05;;;;;;;6.57;5.43;;;15.30;32.40;;;;;;4977176;28;20171;-82
2023/04/10 10:43:29;;;;;;;7.57;5.37;;;15.20;41.50;;;;;;4995047;28;20299;-84
2023/04/10 10:46:02;;;;;;;4.90;4.40;;;15.50;36.80;;;;;;4966202;28;20180;-83
2023/04/10 10:48:28;;;;;;;6.37;4.97;;;15.60;31.00;;;;;;4978104;28;20207;-84
2023/04/10 10:50:59;;;;;;;4.87;4.37;;;15.70;35.80;;;;;;4994460;28;20184;-82
2023/04/10 10:53:39;;;;;;;6.10;4.90;;;15.60;34.30;;;;;;4977498;28;20234;-83
2023/04/10 10:56:22;;;;;;;9.77;5.23;;;15.60;34.70;;;;;;4995328;28;20191;-84
2023/04/10 10:58:57;;;;;;;4.07;3.67;;;16.30;39.60;;;;;;4977731;28;20182;-85
2023/04/10 11:01:23;;;;;;;4.07;3.63;;;16.40;26.30;;;;;;4977429;28;20305;-84
2023/04/10 11:03:49;;;;;;;4.90;4.00;;;16.20;24.10;;;;;;4995426;28;20172;-83
2023/04/10 11:06:18;;;;;;;4.33;3.90;;;16.30;26.10;;;;;;4976913;28;20665;-82
2023/04/10 11:08:46;;;;;;;5.07;4.07;;;16.30;25.00;;;;;;4994801;28;20172;-82
2023/04/10 11:11:22;;;;;;;4.80;4.30;;;16.30;23.70;;;;;;4976446;28;20218;-82
2023/04/10 11:13:56;;;;;;;4.23;3.83;;;16.30;26.30;;;;;;4976653;28;20669;-82
2023/04/10 11:16:32;;;;;;;4.53;3.60;;;16.50;23.00;;;;;;4980551;28;20233;-83
2023/04/10 11:19:11;;;;;;;4.10;3.63;;;16.30;21.70;;;;;;4995993;28;20178;-80
2023/04/10 11:22:01;;;;;;;4.10;3.70;;;16.40;24.10;;;;;;5012756;28;20198;-80
2023/04/10 11:24:27;;;;;;;5.23;4.13;;;16.40;24.00;;;;;;5013330;28;20654;-81
2023/04/10 11:26:53;;;;;;;4.53;3.83;;;16.50;22.90;;;;;;5013692;28;20254;-80
2023/04/10 11:29:27;;;;;;;4.40;3.90;;;16.50;20.70;;;;;;4997596;28;20258;-86
2023/04/10 11:32:00;;;;;;;4.83;4.00;;;16.30;22.10;;;;;;5015848;28;20206;-86
2023/04/10 11:34:27;;;;;;;4.17;3.77;;;16.60;22.40;;;;;;5002106;28;20378;-86
2023/04/10 11:36:53;;;;;;;5.00;4.30;;;17.20;23.50;;;;;;5019334;28;20202;-86
2023/04/10 11:39:20;;;;;;;4.77;4.27;;;17.10;21.50;;;;;;5020092;28;20178;-85
2023/04/10 11:41:48;;;;;;;5.10;4.10;;;16.70;22.00;;;;;;5019604;28;20211;-86
2023/04/10 11:44:16;;;;;;;3.93;3.53;;;16.70;23.30;;;;;;5019982;28;20178;-86
2023/04/10 11:46:45;;;;;;;4.10;3.70;;;17.20;28.20;;;;;;5002619;28;20179;-86
2023/04/10 11:49:11;;;;;;;3.77;3.43;;;17.60;17.30;;;;;;5001500;28;20175;-85
2023/04/10 11:51:38;;;;;;;4.70;4.00;;;18.00;19.90;;;;;;5019148;28;20286;-86
2023/04/10 11:54:11;;;;;;;4.90;3.53;;;18.40;18.90;;;;;;5019096;28;20175;-86
2023/04/10 11:56:39;;;;;;;4.20;3.80;;;18.60;15.90;;;;;;5019396;28;20250;-86
2023/04/10 11:59:09;;;;;;;4.37;3.97;;;18.50;13.70;;;;;;5002485;28;20179;-85
2023/04/10 12:01:41;;;;;;;4.07;3.67;;;18.30;13.10;;;;;;5019078;28;20724;-86
2023/04/10 12:04:25;;;;;;;4.30;3.90;;;18.30;14.00;;;;;;5020132;28;20198;-86
2023/04/10 12:06:52;;;;;;;4.40;3.87;;;18.20;10.90;;;;;;5003460;28;20170;-87
2023/04/10 12:09:20;;;;;;;3.67;3.37;;;17.80;11.60;;;;;;5001823;28;20171;-85
2023/04/10 12:12:01;;;;;;;4.27;3.40;;;17.40;15.20;;;;;;4998766;28;20261;-85
2023/04/10 12:14:38;;;;;;;4.10;3.70;;;17.10;12.90;;;;;;4999402;28;20625;-86
2023/04/10 12:17:06;;;;;;;3.30;3.00;;;17.60;14.60;;;;;;4997023;28;20171;-86
2023/04/10 12:19:32;;;;;;;3.70;3.30;;;17.40;13.70;;;;;;4990554;28;20278;-85
2023/04/10 12:22:00;;;;;;;3.77;3.13;;;17.10;15.30;;;;;;4979571;28;20586;-85
2023/04/10 12:24:46;;;;;;;2.90;2.60;;;17.40;14.10;;;;;;4997575;28;20182;-86
2023/04/10 12:27:19;;;;;;;4.00;2.87;;;17.30;12.50;;;;;;4979781;28;20168;-86
2023/04/10 12:29:48;;;;;;;3.97;3.00;;;17.50;14.50;;;;;;4997035;28;20179;-85
2023/04/10 12:32:14;;;;;;;3.47;3.17;;;17.40;13.80;;;;;;4979531;28;20242;-86
2023/04/10 12:34:40;;;;;;;3.20;2.83;;;17.20;15.20;;;;;;4979661;28;20232;-85
2023/04/10 12:37:06;;;;;;;3.43;2.80;;;17.10;14.90;;;;;;4981930;28;20187;-85
2023/04/10 12:39:32;;;;;;;3.97;3.10;;;17.20;16.90;;;;;;4979427;28;20183;-85
2023/04/10 12:42:38;;;;;;;4.50;3.37;;;16.90;16.10;;;;;;4978618;28;20218;-84
2023/04/10 12:45:04;;;;;;;3.60;3.07;;;16.80;16.10;;;;;;4956899;28;20183;-85
2023/04/10 12:47:41;;;;;;;3.50;3.20;;;17.00;15.00;;;;;;4997413;28;20262;-85
2023/04/10 12:50:13;;;;;;;2.97;2.67;;;17.10;16.40;;;;;;4995231;28;20211;-85
2023/04/10 12:52:41;;;;;;;3.10;2.80;;;17.10;16.20;;;;;;4979385;28;20651;-85
2023/04/10 12:55:18;;;;;;;3.33;3.03;;;17.40;12.50;;;;;;4997434;28;20199;-86
2023/04/10 12:57:47;;;;;;;3.80;3.40;;;17.20;11.90;;;;;;4997409;28;20176;-85